createdAt,value
2022-10-16T00:00:24.435Z,19.21
2022-10-16T00:01:27.950Z,19.19
2022-10-16T00:02:29.436Z,19.16
2022-10-16T00:03:30.925Z,19.21
2022-10-16T00:04:32.756Z,19.25
2022-10-16T00:05:34.851Z,19.30
2022-10-16T00:06:36.383Z,19.26
2022-10-16T00:07:37.923Z,19.15
2022-10-16T00:08:39.488Z,19.07
2022-10-16T00:09:41.022Z,19.05
2022-10-16T00:10:42.511Z,19.11
2022-10-16T00:11:44.064Z,19.05
2022-10-16T00:12:45.599Z,19.00
2022-10-16T00:13:47.289Z,19.00
2022-10-16T00:14:48.763Z,18.99
2022-10-16T00:15:50.213Z,19.03
2022-10-16T00:16:51.632Z,19.00
2022-10-16T00:17:53.075Z,19.04
2022-10-16T00:18:54.678Z,19.09
2022-10-16T00:19:56.175Z,19.06
2022-10-16T00:21:02.236Z,18.98
2022-10-16T00:22:03.658Z,19.00
2022-10-16T00:23:06.078Z,19.06
2022-10-16T00:24:09.212Z,19.04
2022-10-16T00:25:10.687Z,19.06
2022-10-16T00:26:13.067Z,19.06
2022-10-16T00:27:15.043Z,19.11
2022-10-16T00:28:16.472Z,19.13
2022-10-16T00:29:18.149Z,19.17
2022-10-16T00:30:19.716Z,19.16
2022-10-16T00:31:21.763Z,19.19
2022-10-16T00:32:23.357Z,19.15
2022-10-16T00:33:25.035Z,19.20
2022-10-16T00:34:26.530Z,19.17
2022-10-16T00:35:28.841Z,19.21
2022-10-16T00:36:31.610Z,19.21
2022-10-16T00:37:33.103Z,19.21
2022-10-16T00:38:34.813Z,19.20
2022-10-16T00:39:36.295Z,19.16
2022-10-16T00:40:37.783Z,19.08
2022-10-16T00:41:39.242Z,19.08
2022-10-16T00:42:41.117Z,19.04
2022-10-16T00:43:42.579Z,19.09
2022-10-16T00:44:44.003Z,19.11
2022-10-16T00:45:45.436Z,19.15
2022-10-16T00:46:46.872Z,19.14
2022-10-16T00:47:50.481Z,19.17
2022-10-16T00:48:51.883Z,19.20
2022-10-16T00:49:54.473Z,19.25
2022-10-16T00:50:55.951Z,19.27
2022-10-16T00:51:57.458Z,19.25
2022-10-16T00:52:59.058Z,19.26
2022-10-16T00:54:00.777Z,19.29
2022-10-16T00:55:03.936Z,19.31
2022-10-16T00:56:05.506Z,19.35
2022-10-16T00:57:07.158Z,19.37
2022-10-16T00:58:08.740Z,19.39
2022-10-16T00:59:20.291Z,19.39
2022-10-16T01:00:22.704Z,19.39
2022-10-16T01:01:24.186Z,19.38
2022-10-16T01:02:25.918Z,19.38
2022-10-16T01:03:31.818Z,19.38
2022-10-16T01:04:35.168Z,19.37
2022-10-16T01:05:40.607Z,19.34
2022-10-16T01:07:04.591Z,19.23
2022-10-16T01:08:09.579Z,19.18
2022-10-16T01:09:18.655Z,19.16
2022-10-16T01:10:20.222Z,19.09
2022-10-16T01:11:29.243Z,19.09
2022-10-16T01:12:50.935Z,19.03
2022-10-16T01:13:54.781Z,19.02
2022-10-16T01:15:08.151Z,19.07
2022-10-16T01:16:14.387Z,19.07
2022-10-16T01:17:19.687Z,19.05
2022-10-16T01:18:40.853Z,19.06
2022-10-16T01:20:05.819Z,19.01
2022-10-16T01:21:09.059Z,19.08
2022-10-16T01:22:10.613Z,19.08
2022-10-16T01:23:31.019Z,19.07
2022-10-16T01:24:34.142Z,19.09
2022-10-16T01:25:54.439Z,19.10
2022-10-16T01:27:02.019Z,19.11
2022-10-16T01:28:03.480Z,19.09
2022-10-16T01:29:08.351Z,19.11
2022-10-16T01:30:15.051Z,19.13
2022-10-16T01:31:17.973Z,19.16
2022-10-16T01:32:19.411Z,19.14
2022-10-16T01:33:22.760Z,19.14
2022-10-16T01:34:26.397Z,19.14
2022-10-16T01:35:28.699Z,19.16
2022-10-16T01:36:32.185Z,19.19
2022-10-16T01:37:36.154Z,19.25
2022-10-16T01:38:38.094Z,19.23
2022-10-16T01:39:39.618Z,19.23
2022-10-16T01:40:42.326Z,19.24
2022-10-16T01:41:48.076Z,19.25
2022-10-16T01:42:51.126Z,19.26
2022-10-16T01:43:58.214Z,19.26
2022-10-16T01:44:59.722Z,19.28
2022-10-16T01:46:01.467Z,19.31
2022-10-16T01:47:03.096Z,19.33
2022-10-16T01:48:06.520Z,19.37
2022-10-16T01:49:07.959Z,19.36
2022-10-16T01:50:09.507Z,19.37
2022-10-16T01:51:11.567Z,19.38
2022-10-16T01:52:14.774Z,19.38
2022-10-16T01:53:16.236Z,19.34
2022-10-16T01:54:17.706Z,19.37
2022-10-16T01:55:20.659Z,19.39
2022-10-16T01:56:23.562Z,19.40
2022-10-16T01:57:25.348Z,19.40
2022-10-16T01:58:26.843Z,19.38
2022-10-16T01:59:28.612Z,19.36
2022-10-16T02:00:43.824Z,19.34
2022-10-16T02:01:46.850Z,19.37
2022-10-16T02:02:50.042Z,19.40
2022-10-16T02:03:53.867Z,19.40
2022-10-16T02:05:13.779Z,19.35
2022-10-16T02:06:15.259Z,19.37
2022-10-16T02:07:17.320Z,19.37
2022-10-16T02:08:18.851Z,19.35
2022-10-16T02:09:20.387Z,19.38
2022-10-16T02:10:21.926Z,19.37
2022-10-16T02:11:23.480Z,19.37
2022-10-16T02:12:26.755Z,19.39
2022-10-16T02:13:32.548Z,19.38
2022-10-16T02:14:34.021Z,19.41
2022-10-16T02:15:35.626Z,19.43
2022-10-16T02:16:46.907Z,19.44
2022-10-16T02:17:48.432Z,19.44
2022-10-16T02:18:49.974Z,19.39
2022-10-16T02:19:51.958Z,19.40
2022-10-16T02:20:54.407Z,19.42
2022-10-16T02:22:00.438Z,19.43
2022-10-16T02:23:01.928Z,19.47
2022-10-16T02:24:04.693Z,19.47
2022-10-16T02:25:07.739Z,19.49
2022-10-16T02:26:10.158Z,19.48
2022-10-16T02:27:15.705Z,19.49
2022-10-16T02:28:40.079Z,19.52
2022-10-16T02:29:45.671Z,19.49
2022-10-16T02:30:49.335Z,19.49
2022-10-16T02:31:52.063Z,19.44
2022-10-16T02:32:53.543Z,19.37
2022-10-16T02:33:55.877Z,19.35
2022-10-16T02:34:57.384Z,19.37
2022-10-16T02:35:58.939Z,19.33
2022-10-16T02:37:00.842Z,19.31
2022-10-16T02:38:02.383Z,19.30
2022-10-16T02:39:04.854Z,19.32
2022-10-16T02:40:06.648Z,19.36
2022-10-16T02:41:08.295Z,19.37
2022-10-16T02:42:13.355Z,19.39
2022-10-16T02:43:14.808Z,19.37
2022-10-16T02:44:17.431Z,19.37
2022-10-16T02:45:18.949Z,19.35
2022-10-16T02:46:20.502Z,19.37
2022-10-16T02:47:22.199Z,19.41
2022-10-16T02:48:23.639Z,19.41
2022-10-16T02:49:25.180Z,19.42
2022-10-16T02:50:26.631Z,19.45
2022-10-16T02:51:28.056Z,19.46
2022-10-16T02:52:29.841Z,19.48
2022-10-16T02:53:31.549Z,19.49
2022-10-16T02:54:33.027Z,19.52
2022-10-16T02:55:34.723Z,19.53
2022-10-16T02:56:36.208Z,19.54
2022-10-16T02:57:38.204Z,19.56
2022-10-16T02:58:39.680Z,19.56
2022-10-16T02:59:41.243Z,19.53
2022-10-16T03:00:43.452Z,19.49
2022-10-16T03:01:45.560Z,19.49
2022-10-16T03:02:47.693Z,19.51
2022-10-16T03:03:49.272Z,19.50
2022-10-16T03:04:50.719Z,19.54
2022-10-16T03:05:52.198Z,19.55
2022-10-16T03:06:53.788Z,19.57
2022-10-16T03:07:55.457Z,19.59
2022-10-16T03:08:56.930Z,19.60
2022-10-16T03:10:01.155Z,19.62
2022-10-16T03:11:02.586Z,19.63
2022-10-16T03:12:04.119Z,19.63
2022-10-16T03:13:05.660Z,19.63
2022-10-16T03:14:07.220Z,19.63
2022-10-16T03:15:09.520Z,19.64
2022-10-16T03:16:11.018Z,19.65
2022-10-16T03:17:13.822Z,19.66
2022-10-16T03:18:15.338Z,19.67
2022-10-16T03:19:17.270Z,19.68
2022-10-16T03:20:18.722Z,19.67
2022-10-16T03:21:20.309Z,19.67
2022-10-16T03:22:21.748Z,19.68
2022-10-16T03:23:23.259Z,19.68
2022-10-16T03:24:24.972Z,19.71
2022-10-16T03:25:26.475Z,19.71
2022-10-16T03:26:28.016Z,19.72
2022-10-16T03:27:29.560Z,19.72
2022-10-16T03:28:31.438Z,19.73
2022-10-16T03:29:33.869Z,19.73
2022-10-16T03:30:35.369Z,19.73
2022-10-16T03:31:36.866Z,19.73
2022-10-16T03:32:38.430Z,19.74
2022-10-16T03:33:39.909Z,19.75
2022-10-16T03:34:41.347Z,19.75
2022-10-16T03:35:43.198Z,19.75
2022-10-16T03:36:44.628Z,19.75
2022-10-16T03:37:46.078Z,19.76
2022-10-16T03:38:47.605Z,19.75
2022-10-16T03:39:49.075Z,19.76
2022-10-16T03:40:50.582Z,19.77
2022-10-16T03:41:52.138Z,19.75
2022-10-16T03:42:56.264Z,19.75
2022-10-16T03:43:57.766Z,19.75
2022-10-16T03:44:59.399Z,19.74
2022-10-16T03:46:00.884Z,19.73
2022-10-16T03:47:02.366Z,19.74
2022-10-16T03:48:04.365Z,19.75
2022-10-16T03:49:08.854Z,19.74
2022-10-16T03:50:11.371Z,19.75
2022-10-16T03:51:12.882Z,19.72
2022-10-16T03:52:14.409Z,19.74
2022-10-16T03:53:15.903Z,19.75
2022-10-16T03:54:17.415Z,19.75
2022-10-16T03:55:18.864Z,19.76
2022-10-16T03:56:20.329Z,19.75
2022-10-16T03:57:21.999Z,19.77
2022-10-16T03:58:23.566Z,19.77
2022-10-16T03:59:25.311Z,19.77
2022-10-16T04:00:26.918Z,19.78
2022-10-16T04:01:28.378Z,19.79
2022-10-16T04:02:29.875Z,19.79
2022-10-16T04:03:31.421Z,19.78
2022-10-16T04:04:32.990Z,19.79
2022-10-16T04:05:34.455Z,19.78
2022-10-16T04:06:35.913Z,19.78
2022-10-16T04:07:37.471Z,19.77
2022-10-16T04:08:40.151Z,19.77
2022-10-16T04:09:41.706Z,19.77
2022-10-16T04:10:43.835Z,19.78
2022-10-16T04:11:45.290Z,19.78
2022-10-16T04:12:46.724Z,19.78
2022-10-16T04:13:48.300Z,19.78
2022-10-16T04:14:49.773Z,19.78
2022-10-16T04:15:51.252Z,19.79
2022-10-16T04:16:52.742Z,19.78
2022-10-16T04:17:54.203Z,19.78
2022-10-16T04:18:55.663Z,19.74
2022-10-16T04:19:57.207Z,19.74
2022-10-16T04:21:02.792Z,19.75
2022-10-16T04:22:04.261Z,19.73
2022-10-16T04:23:05.779Z,19.75
2022-10-16T04:24:07.228Z,19.73
2022-10-16T04:25:08.865Z,19.74
2022-10-16T04:26:11.454Z,19.74
2022-10-16T04:27:12.935Z,19.74
2022-10-16T04:28:14.419Z,19.74
2022-10-16T04:29:15.885Z,19.73
2022-10-16T04:30:17.654Z,19.75
2022-10-16T04:31:19.134Z,19.74
2022-10-16T04:32:20.632Z,19.74
2022-10-16T04:33:22.216Z,19.73
2022-10-16T04:34:23.771Z,19.74
2022-10-16T04:35:25.222Z,19.73
2022-10-16T04:36:29.126Z,19.74
2022-10-16T04:37:30.988Z,19.73
2022-10-16T04:38:32.739Z,19.72
2022-10-16T04:39:34.242Z,19.72
2022-10-16T04:40:37.499Z,19.72
2022-10-16T04:41:38.966Z,19.71
2022-10-16T04:42:40.478Z,19.68
2022-10-16T04:43:41.927Z,19.65
2022-10-16T04:44:43.465Z,19.60
2022-10-16T04:45:45.218Z,19.55
2022-10-16T04:46:46.682Z,19.44
2022-10-16T04:47:48.162Z,19.41
2022-10-16T04:48:49.619Z,19.41
2022-10-16T04:49:51.138Z,19.40
2022-10-16T04:50:54.557Z,19.37
2022-10-16T04:51:56.793Z,19.35
2022-10-16T04:52:58.279Z,19.31
2022-10-16T04:53:59.767Z,19.29
2022-10-16T04:55:03.551Z,19.29
2022-10-16T04:56:05.110Z,19.31
2022-10-16T04:57:06.547Z,19.32
2022-10-16T04:58:08.085Z,19.36
2022-10-16T04:59:09.940Z,19.35
2022-10-16T05:00:11.583Z,19.36
2022-10-16T05:01:13.059Z,19.37
2022-10-16T05:02:14.595Z,19.36
2022-10-16T05:03:16.144Z,19.39
2022-10-16T05:04:17.847Z,19.39
2022-10-16T05:05:20.531Z,19.42
2022-10-16T05:06:22.043Z,19.37
2022-10-16T05:07:23.814Z,19.38
2022-10-16T05:08:25.713Z,19.36
2022-10-16T05:09:27.174Z,19.29
2022-10-16T05:10:29.071Z,19.28
2022-10-16T05:11:30.542Z,19.30
2022-10-16T05:12:32.095Z,19.34
2022-10-16T05:13:33.907Z,19.37
2022-10-16T05:14:35.377Z,19.39
2022-10-16T05:15:36.892Z,19.41
2022-10-16T05:16:38.359Z,19.45
2022-10-16T05:17:42.550Z,19.45
2022-10-16T05:18:46.559Z,19.46
2022-10-16T05:19:48.046Z,19.48
2022-10-16T05:20:49.540Z,19.47
2022-10-16T05:21:50.980Z,19.49
2022-10-16T05:22:52.416Z,19.50
2022-10-16T05:23:54.325Z,19.52
2022-10-16T05:24:55.862Z,19.51
2022-10-16T05:25:59.242Z,19.53
2022-10-16T05:27:00.932Z,19.54
2022-10-16T05:28:02.363Z,19.56
2022-10-16T05:29:04.116Z,19.55
2022-10-16T05:30:08.576Z,19.57
2022-10-16T05:31:12.978Z,19.58
2022-10-16T05:32:14.814Z,19.58
2022-10-16T05:33:16.330Z,19.59
2022-10-16T05:34:17.772Z,19.59
2022-10-16T05:35:19.364Z,19.60
2022-10-16T05:36:20.898Z,19.62
2022-10-16T05:37:22.328Z,19.62
2022-10-16T05:38:23.862Z,19.63
2022-10-16T05:39:25.357Z,19.63
2022-10-16T05:40:26.804Z,19.64
2022-10-16T05:41:28.518Z,19.64
2022-10-16T05:42:29.964Z,19.64
2022-10-16T05:43:31.820Z,19.65
2022-10-16T05:45:35.718Z,19.65
2022-10-16T05:46:37.196Z,19.65
2022-10-16T05:47:39.029Z,19.64
2022-10-16T05:48:40.533Z,19.64
2022-10-16T05:49:42.055Z,19.63
2022-10-16T05:50:43.491Z,19.63
2022-10-16T05:51:45.087Z,19.63
2022-10-16T05:52:46.578Z,19.60
2022-10-16T05:53:48.428Z,19.59
2022-10-16T05:54:50.640Z,19.56
2022-10-16T05:55:52.834Z,19.53
2022-10-16T05:56:54.344Z,19.54
2022-10-16T05:57:55.971Z,19.55
2022-10-16T05:58:57.472Z,19.54
2022-10-16T05:59:59.072Z,19.50
2022-10-16T06:01:01.820Z,19.52
2022-10-16T06:02:03.307Z,19.51
2022-10-16T06:03:05.899Z,19.47
2022-10-16T06:04:07.440Z,19.44
2022-10-16T06:05:09.780Z,19.46
2022-10-16T06:06:18.275Z,19.47
2022-10-16T06:07:19.747Z,19.46
2022-10-16T06:08:21.600Z,19.48
2022-10-16T06:09:23.099Z,19.45
2022-10-16T06:10:24.635Z,19.47
2022-10-16T06:11:27.210Z,19.49
2022-10-16T06:12:28.677Z,19.46
2022-10-16T06:13:30.247Z,19.47
2022-10-16T06:14:31.810Z,19.49
2022-10-16T06:15:33.338Z,19.50
2022-10-16T06:16:35.493Z,19.51
2022-10-16T06:17:36.967Z,19.53
2022-10-16T06:18:38.436Z,19.55
2022-10-16T06:19:39.988Z,19.56
2022-10-16T06:20:41.563Z,19.55
2022-10-16T06:21:43.056Z,19.49
2022-10-16T06:22:44.596Z,19.49
2022-10-16T06:23:48.726Z,19.48
2022-10-16T06:24:50.858Z,19.47
2022-10-16T06:25:52.426Z,19.47
2022-10-16T06:26:53.870Z,19.46
2022-10-16T06:27:55.354Z,19.45
2022-10-16T06:28:57.156Z,19.43
2022-10-16T06:29:58.712Z,19.42
2022-10-16T06:31:04.203Z,19.41
2022-10-16T06:32:08.947Z,19.37
2022-10-16T06:33:11.421Z,19.39
2022-10-16T06:34:13.106Z,19.41
2022-10-16T06:35:14.675Z,19.44
2022-10-16T06:36:16.599Z,19.47
2022-10-16T06:37:18.096Z,19.46
2022-10-16T06:38:19.547Z,19.46
2022-10-16T06:39:21.041Z,19.44
2022-10-16T06:40:22.594Z,19.44
2022-10-16T06:41:24.400Z,19.46
2022-10-16T06:42:26.388Z,19.47
2022-10-16T06:43:30.972Z,19.48
2022-10-16T06:44:32.498Z,19.46
2022-10-16T06:45:33.979Z,19.51
2022-10-16T06:46:35.635Z,19.52
2022-10-16T06:47:37.186Z,19.52
2022-10-16T06:48:38.776Z,19.54
2022-10-16T06:49:40.296Z,19.53
2022-10-16T06:50:41.862Z,19.53
2022-10-16T06:51:43.729Z,19.51
2022-10-16T06:52:45.272Z,19.52
2022-10-16T06:54:02.203Z,19.54
2022-10-16T06:55:05.316Z,19.47
2022-10-16T06:56:10.513Z,19.42
2022-10-16T06:57:12.038Z,19.44
2022-10-16T06:58:13.485Z,19.44
2022-10-16T06:59:15.003Z,19.43
2022-10-16T07:00:16.620Z,19.44
2022-10-16T07:01:19.421Z,19.46
2022-10-16T07:02:20.930Z,19.48
2022-10-16T07:03:22.399Z,19.44
2022-10-16T07:04:23.839Z,19.44
2022-10-16T07:05:25.322Z,19.38
2022-10-16T07:06:27.190Z,19.28
2022-10-16T07:07:28.740Z,19.26
2022-10-16T07:08:39.842Z,19.29
2022-10-16T07:09:41.265Z,19.31
2022-10-16T07:10:42.732Z,19.34
2022-10-16T07:11:44.193Z,19.39
2022-10-16T07:12:46.130Z,19.40
2022-10-16T07:13:50.994Z,19.42
2022-10-16T07:14:57.184Z,19.46
2022-10-16T07:15:58.624Z,19.45
2022-10-16T07:17:00.114Z,19.46
2022-10-16T07:18:01.606Z,19.48
2022-10-16T07:19:03.165Z,19.51
2022-10-16T07:20:04.770Z,19.54
2022-10-16T07:21:06.898Z,19.57
2022-10-16T07:22:08.500Z,19.60
2022-10-16T07:23:09.979Z,19.61
2022-10-16T07:24:12.363Z,19.58
2022-10-16T07:25:13.882Z,19.57
2022-10-16T07:26:15.920Z,19.58
2022-10-16T07:27:17.589Z,19.59
2022-10-16T07:28:19.241Z,19.62
2022-10-16T07:29:21.178Z,19.60
2022-10-16T07:30:22.604Z,19.59
2022-10-16T07:31:24.303Z,19.61
2022-10-16T07:32:26.967Z,19.63
2022-10-16T07:33:29.007Z,19.65
2022-10-16T07:34:30.508Z,19.65
2022-10-16T07:35:32.032Z,19.67
2022-10-16T07:36:33.550Z,19.69
2022-10-16T07:37:35.102Z,19.72
2022-10-16T07:38:36.531Z,19.74
2022-10-16T07:39:38.010Z,19.76
2022-10-16T07:40:39.507Z,19.78
2022-10-16T07:41:40.984Z,19.80
2022-10-16T07:42:42.554Z,19.81
2022-10-16T07:43:47.423Z,19.83
2022-10-16T07:44:48.948Z,19.84
2022-10-16T07:46:57.103Z,19.79
2022-10-16T07:47:58.572Z,19.81
2022-10-16T07:49:00.025Z,19.84
2022-10-16T07:50:01.568Z,19.86
2022-10-16T07:51:03.971Z,19.87
2022-10-16T07:52:05.465Z,19.88
2022-10-16T07:53:06.918Z,19.87
2022-10-16T07:54:09.355Z,19.87
2022-10-16T07:55:10.850Z,19.90
2022-10-16T07:56:12.849Z,19.88
2022-10-16T07:57:20.200Z,19.87
2022-10-16T07:58:21.682Z,19.88
2022-10-16T07:59:23.106Z,19.90
2022-10-16T08:00:24.598Z,19.91
2022-10-16T08:01:26.172Z,19.91
2022-10-16T08:02:27.715Z,19.88
2022-10-16T08:03:29.194Z,19.84
2022-10-16T08:04:30.616Z,19.82
2022-10-16T08:05:32.300Z,19.77
2022-10-16T08:06:35.894Z,19.78
2022-10-16T08:07:37.319Z,19.79
2022-10-16T08:08:38.782Z,19.79
2022-10-16T08:09:40.272Z,19.78
2022-10-16T08:10:41.744Z,19.77
2022-10-16T08:11:43.243Z,19.81
2022-10-16T08:12:44.663Z,19.84
2022-10-16T08:13:46.132Z,19.86
2022-10-16T08:14:47.825Z,19.88
2022-10-16T08:15:49.394Z,19.87
2022-10-16T08:16:50.858Z,19.85
2022-10-16T08:17:56.046Z,19.80
2022-10-16T08:18:57.542Z,19.82
2022-10-16T08:19:59.014Z,19.83
2022-10-16T08:21:01.283Z,19.86
2022-10-16T08:22:02.888Z,19.88
2022-10-16T08:23:04.378Z,19.89
2022-10-16T08:24:05.892Z,19.90
2022-10-16T08:25:07.419Z,19.90
2022-10-16T08:26:09.082Z,19.88
2022-10-16T08:27:11.191Z,19.87
2022-10-16T08:28:12.684Z,19.85
2022-10-16T08:29:14.739Z,19.80
2022-10-16T08:30:16.466Z,19.73
2022-10-16T08:32:26.825Z,19.81
2022-10-16T08:33:29.206Z,19.83
2022-10-16T08:34:30.670Z,19.85
2022-10-16T08:35:32.291Z,19.85
2022-10-16T08:36:33.735Z,19.81
2022-10-16T08:37:35.244Z,19.81
2022-10-16T08:38:37.183Z,19.78
2022-10-16T08:39:38.633Z,19.78
2022-10-16T08:40:40.075Z,19.81
2022-10-16T08:42:00.051Z,19.80
2022-10-16T08:43:07.507Z,19.80
2022-10-16T08:44:41.280Z,19.79
2022-10-16T08:45:48.881Z,19.81
2022-10-16T08:46:53.103Z,19.81
2022-10-16T08:48:02.291Z,19.82
2022-10-16T08:49:03.795Z,19.75
2022-10-16T08:50:13.055Z,19.73
2022-10-16T08:51:24.732Z,19.79
2022-10-16T08:52:36.386Z,19.84
2022-10-16T08:53:39.816Z,19.89
2022-10-16T08:54:44.691Z,19.93
2022-10-16T08:55:47.384Z,19.97
2022-10-16T08:56:48.859Z,20.00
2022-10-16T08:57:50.302Z,20.05
2022-10-16T08:58:56.546Z,20.07
2022-10-16T09:00:02.128Z,20.06
2022-10-16T09:01:12.434Z,20.07
2022-10-16T09:02:31.889Z,20.09
2022-10-16T09:03:52.143Z,20.13
2022-10-16T09:04:56.606Z,20.19
2022-10-16T09:06:01.793Z,20.20
2022-10-16T09:07:03.327Z,20.17
2022-10-16T09:08:10.724Z,20.04
2022-10-16T09:09:17.383Z,20.16
2022-10-16T09:10:24.879Z,20.20
2022-10-16T09:11:26.323Z,20.26
2022-10-16T09:12:30.123Z,20.25
2022-10-16T09:13:37.328Z,20.28
2022-10-16T09:14:57.782Z,20.33
2022-10-16T09:16:19.528Z,20.49
2022-10-16T09:17:30.031Z,20.59
2022-10-16T09:18:32.839Z,20.67
2022-10-16T09:19:36.668Z,20.76
2022-10-16T09:20:38.137Z,20.84
2022-10-16T09:21:41.107Z,20.88
2022-10-16T09:22:42.587Z,20.90
2022-10-16T09:23:44.051Z,20.91
2022-10-16T09:24:45.535Z,20.94
2022-10-16T09:25:48.832Z,20.96
2022-10-16T09:26:50.816Z,21.00
2022-10-16T09:27:53.245Z,21.03
2022-10-16T09:28:54.921Z,21.01
2022-10-16T09:29:59.645Z,21.00
2022-10-16T09:31:01.657Z,20.99
2022-10-16T09:32:16.163Z,21.02
2022-10-16T09:33:21.807Z,21.05
2022-10-16T09:34:33.397Z,21.12
2022-10-16T09:35:37.677Z,21.21
2022-10-16T09:36:43.363Z,21.48
2022-10-16T09:37:46.220Z,21.69
2022-10-16T09:38:47.656Z,21.90
2022-10-16T09:39:52.475Z,22.16
2022-10-16T09:40:59.083Z,22.39
2022-10-16T09:42:04.847Z,22.49
2022-10-16T09:43:21.485Z,22.67
2022-10-16T09:44:26.787Z,22.85
2022-10-16T09:45:28.230Z,22.88
2022-10-16T09:46:35.863Z,22.93
2022-10-16T09:47:38.486Z,22.99
2022-10-16T09:48:40.819Z,23.11
2022-10-16T09:49:51.458Z,23.25
2022-10-16T09:50:56.651Z,23.41
2022-10-16T09:52:07.382Z,23.59
2022-10-16T09:53:15.946Z,23.77
2022-10-16T09:54:21.515Z,23.99
2022-10-16T09:55:22.968Z,24.05
2022-10-16T09:56:25.549Z,24.15
2022-10-16T09:57:27.079Z,24.16
2022-10-16T09:58:28.734Z,24.23
2022-10-16T09:59:32.085Z,24.30
2022-10-16T10:00:33.551Z,24.38
2022-10-16T10:01:39.187Z,24.43
2022-10-16T10:02:40.683Z,24.50
2022-10-16T10:03:42.805Z,24.58
2022-10-16T10:04:51.316Z,24.62
2022-10-16T10:05:53.091Z,24.64
2022-10-16T10:06:58.122Z,24.71
2022-10-16T10:08:00.507Z,24.75
2022-10-16T10:09:04.725Z,24.78
2022-10-16T10:10:06.410Z,24.85
2022-10-16T10:11:09.144Z,24.90
2022-10-16T10:12:35.797Z,24.93
2022-10-16T10:13:37.288Z,24.91
2022-10-16T10:14:39.599Z,24.87
2022-10-16T10:15:42.339Z,24.95
2022-10-16T10:16:43.829Z,25.09
2022-10-16T10:17:51.496Z,25.15
2022-10-16T10:18:59.123Z,25.09
2022-10-16T10:20:03.996Z,25.10
2022-10-16T10:21:07.054Z,25.09
2022-10-16T10:22:34.985Z,25.01
2022-10-16T10:23:36.446Z,25.08
2022-10-16T10:24:37.912Z,25.09
2022-10-16T10:25:41.379Z,25.07
2022-10-16T10:26:48.542Z,25.05
2022-10-16T10:28:08.676Z,25.06
2022-10-16T10:29:16.402Z,25.02
2022-10-16T10:30:20.677Z,24.95
2022-10-16T10:31:25.479Z,24.94
2022-10-16T10:32:36.441Z,24.90
2022-10-16T10:33:59.749Z,24.88
2022-10-16T10:35:04.477Z,24.88
2022-10-16T10:36:27.162Z,24.91
2022-10-16T10:37:34.632Z,24.91
2022-10-16T10:38:42.230Z,24.90
2022-10-16T10:39:44.948Z,24.88
2022-10-16T10:40:46.424Z,24.84
2022-10-16T10:42:03.410Z,24.82
2022-10-16T10:43:06.634Z,24.86
2022-10-16T10:44:23.027Z,24.90
2022-10-16T10:45:28.548Z,24.92
2022-10-16T10:46:30.931Z,24.90
2022-10-16T10:47:51.190Z,24.86
2022-10-16T10:49:02.068Z,24.83
2022-10-16T10:50:03.493Z,24.83
2022-10-16T10:51:05.595Z,24.78
2022-10-16T10:52:25.619Z,24.77
2022-10-16T10:53:45.952Z,24.75
2022-10-16T10:54:52.215Z,24.74
2022-10-16T10:56:13.912Z,24.73
2022-10-16T10:57:27.423Z,24.70
2022-10-16T10:58:36.064Z,24.70
2022-10-16T10:59:58.051Z,24.70
2022-10-16T11:01:05.152Z,24.61
2022-10-16T11:02:06.596Z,24.60
2022-10-16T11:03:27.019Z,24.60
2022-10-16T11:04:50.836Z,24.60
2022-10-16T11:05:59.610Z,24.58
2022-10-16T11:07:02.123Z,24.58
2022-10-16T11:08:07.667Z,24.56
2022-10-16T11:09:13.501Z,24.51
2022-10-16T11:10:28.708Z,24.49
2022-10-16T11:11:37.557Z,24.49
2022-10-16T11:12:45.812Z,24.48
2022-10-16T11:14:07.526Z,24.48
2022-10-16T11:15:12.947Z,24.47
2022-10-16T11:16:21.885Z,24.44
2022-10-16T11:17:23.346Z,24.26
2022-10-16T11:18:38.813Z,24.20
2022-10-16T11:19:54.683Z,24.18
2022-10-16T11:21:01.262Z,24.19
2022-10-16T11:22:08.512Z,24.12
2022-10-16T11:23:17.555Z,24.14
2022-10-16T11:24:23.244Z,24.20
2022-10-16T11:25:33.753Z,24.19
2022-10-16T11:26:35.808Z,24.19
2022-10-16T11:27:38.951Z,24.20
2022-10-16T11:28:50.174Z,24.22
2022-10-16T11:29:56.386Z,24.23
2022-10-16T11:31:04.195Z,24.26
2022-10-16T11:32:13.516Z,24.26
2022-10-16T11:33:17.592Z,24.28
2022-10-16T11:34:23.028Z,24.21
2022-10-16T11:35:26.222Z,24.22
2022-10-16T11:36:47.830Z,24.23
2022-10-16T11:37:49.323Z,24.25
2022-10-16T11:39:01.565Z,24.26
2022-10-16T11:40:23.911Z,24.23
2022-10-16T11:41:28.238Z,24.25
2022-10-16T11:42:39.025Z,24.23
2022-10-16T11:43:42.147Z,24.13
2022-10-16T11:44:43.760Z,24.17
2022-10-16T11:45:52.667Z,24.20
2022-10-16T11:47:24.403Z,24.23
2022-10-16T11:48:33.830Z,24.23
2022-10-16T11:49:35.339Z,24.27
2022-10-16T11:50:51.039Z,24.30
2022-10-16T11:52:07.633Z,24.29
2022-10-16T11:53:22.888Z,24.28
2022-10-16T11:54:42.739Z,24.26
2022-10-16T11:55:46.973Z,24.27
2022-10-16T11:56:49.252Z,24.28
2022-10-16T11:57:55.324Z,24.25
2022-10-16T11:58:56.911Z,24.25
2022-10-16T12:00:07.455Z,24.22
2022-10-16T12:01:13.910Z,24.12
2022-10-16T12:02:35.849Z,23.96
2022-10-16T12:03:41.860Z,24.04
2022-10-16T12:04:46.514Z,24.08
2022-10-16T12:05:53.520Z,24.14
2022-10-16T12:07:03.831Z,24.17
2022-10-16T12:08:05.279Z,24.19
2022-10-16T12:09:06.740Z,24.23
2022-10-16T12:10:27.870Z,24.22
2022-10-16T12:11:29.478Z,24.26
2022-10-16T12:12:37.875Z,24.26
2022-10-16T12:13:40.484Z,24.27
2022-10-16T12:16:13.118Z,24.32
2022-10-16T12:17:23.555Z,24.35
2022-10-16T12:18:25.087Z,24.40
2022-10-16T12:19:27.554Z,24.44
2022-10-16T12:20:33.430Z,24.47
2022-10-16T12:21:34.846Z,24.47
2022-10-16T12:22:39.332Z,24.48
2022-10-16T12:23:49.006Z,24.46
2022-10-16T12:24:52.632Z,24.48
2022-10-16T12:25:57.151Z,24.50
2022-10-16T12:26:58.599Z,24.52
2022-10-16T12:28:01.055Z,24.54
2022-10-16T12:29:28.567Z,24.54
2022-10-16T12:30:33.671Z,24.57
2022-10-16T12:31:42.605Z,24.58
2022-10-16T12:32:47.884Z,24.59
2022-10-16T12:34:03.171Z,24.58
2022-10-16T12:35:05.026Z,24.60
2022-10-16T12:36:09.299Z,24.62
2022-10-16T12:37:21.548Z,24.62
2022-10-16T12:38:38.314Z,24.64
2022-10-16T12:39:39.842Z,24.65
2022-10-16T12:40:41.319Z,24.68
2022-10-16T12:41:43.344Z,24.66
2022-10-16T12:42:44.819Z,24.66
2022-10-16T12:43:46.934Z,24.67
2022-10-16T12:44:48.419Z,24.68
2022-10-16T12:45:49.871Z,24.69
2022-10-16T12:46:51.993Z,24.70
2022-10-16T12:47:54.810Z,24.70
2022-10-16T12:49:14.304Z,24.72
2022-10-16T12:50:24.772Z,24.76
2022-10-16T12:51:36.245Z,24.77
2022-10-16T12:52:38.503Z,24.79
2022-10-16T12:53:40.016Z,24.81
2022-10-16T12:54:42.797Z,24.81
2022-10-16T12:55:46.817Z,24.81
2022-10-16T12:56:57.204Z,24.80
2022-10-16T12:58:04.652Z,24.82
2022-10-16T12:59:10.105Z,24.80
2022-10-16T13:00:30.215Z,24.79
2022-10-16T13:02:03.923Z,24.80
2022-10-16T13:03:12.293Z,24.80
2022-10-16T13:04:17.140Z,24.79
2022-10-16T13:05:18.559Z,24.79
2022-10-16T13:06:38.920Z,24.79
2022-10-16T13:07:53.010Z,24.75
2022-10-16T13:08:54.495Z,24.75
2022-10-16T13:09:59.003Z,24.75
2022-10-16T13:11:10.071Z,24.73
2022-10-16T13:12:20.486Z,24.72
2022-10-16T13:13:21.953Z,24.71
2022-10-16T13:15:48.935Z,24.71
2022-10-16T13:16:50.339Z,24.71
2022-10-16T13:17:57.764Z,24.71
2022-10-16T13:18:59.214Z,24.71
2022-10-16T13:20:00.676Z,24.70
2022-10-16T13:21:34.447Z,24.70
2022-10-16T13:22:55.142Z,24.70
2022-10-16T13:24:02.615Z,24.68
2022-10-16T13:25:04.208Z,24.67
2022-10-16T13:26:35.368Z,24.64
2022-10-16T13:27:52.842Z,24.64
2022-10-16T13:28:54.373Z,24.64
2022-10-16T13:30:01.363Z,24.64
2022-10-16T13:31:02.978Z,24.64
2022-10-16T13:32:08.119Z,24.64
2022-10-16T13:33:17.129Z,24.63
2022-10-16T13:34:19.516Z,24.63
2022-10-16T13:35:22.088Z,24.63
2022-10-16T13:36:24.359Z,24.63
2022-10-16T13:37:26.204Z,24.62
2022-10-16T13:38:28.815Z,24.63
2022-10-16T13:39:30.569Z,24.63
2022-10-16T13:40:32.119Z,24.63
2022-10-16T13:41:33.870Z,24.64
2022-10-16T13:42:35.619Z,24.64
2022-10-16T13:43:37.878Z,24.64
2022-10-16T13:44:50.178Z,24.64
2022-10-16T13:45:55.552Z,24.64
2022-10-16T13:47:00.927Z,24.64
2022-10-16T13:48:05.510Z,24.62
2022-10-16T13:49:12.443Z,24.64
2022-10-16T13:50:14.451Z,24.64
2022-10-16T13:51:16.748Z,24.65
2022-10-16T13:52:19.085Z,24.67
2022-10-16T13:53:20.559Z,24.67
2022-10-16T13:54:22.263Z,24.68